Time;durP1;ratioP1;P1;durP2;ratioP2;P2;SDS_P1;SDS_P2;PMS_P1;PMS_P2;Temp;Humidity;BMP_temperature;BMP_pressure;BME280_temperature;BME280_humidity;BME280_pressure;Samples;Min_cycle;Max_cycle;Signal;HPM_P1;HPM_P2
2021/12/29 10:34:49;;;;;;;30.55;12.40;;;;;;;;;;5103811;28;20390;-64
2021/12/29 10:37:17;;;;;;;29.35;12.25;;;;;;;;;;5108330;27;20062;-65
2021/12/29 10:39:45;;;;;;;30.98;12.07;;;;;;;;;;5125707;27;20217;-66
2021/12/29 10:42:15;;;;;;;21.83;11.30;;;;;;;;;;5117173;27;20055;-65
2021/12/29 10:44:45;;;;;;;26.33;11.75;;;;;;;;;;5114256;27;20262;-66
2021/12/29 10:47:22;;;;;;;27.92;12.15;;;;;;;;;;5088792;27;20525;-65
2021/12/29 10:50:09;;;;;;;33.60;11.88;;;;;;;;;;5086077;28;20044;-65
2021/12/29 10:52:46;;;;;;;20.10;10.18;;;;;;;;;;5111473;27;20087;-65
2021/12/29 10:55:18;;;;;;;25.88;10.57;;;;;;;;;;5096760;27;20071;-66
2021/12/29 10:57:45;;;;;;;21.00;9.52;;;;;;;;;;5116376;27;20048;-66
2021/12/29 11:00:33;;;;;;;25.35;11.00;;;;;;;;;;5113102;27;20056;-65
2021/12/29 11:03:07;;;;;;;22.85;11.18;;;;;;;;;;5125402;27;20135;-66
2021/12/29 11:05:37;;;;;;;24.80;9.98;;;;;;;;;;5125730;27;20139;-66
2021/12/29 11:08:04;;;;;;;24.30;11.43;;;;;;;;;;5125354;27;20519;-66
2021/12/29 11:10:31;;;;;;;22.38;11.63;;;;;;;;;;5102173;27;20106;-66
2021/12/29 11:12:57;;;;;;;24.17;10.18;;;;;;;;;;5117926;27;20158;-65
2021/12/29 11:15:25;;;;;;;17.75;9.13;;;;;;;;;;5089448;28;20059;-66
2021/12/29 11:17:52;;;;;;;22.55;10.40;;;;;;;;;;5104461;27;20056;-67
2021/12/29 11:20:19;;;;;;;21.98;9.63;;;;;;;;;;5092122;27;20487;-65
2021/12/29 11:22:45;;;;;;;23.45;10.30;;;;;;;;;;5091908;27;20044;-66
2021/12/29 11:25:12;;;;;;;21.73;9.80;;;;;;;;;;5090488;28;20517;-65
2021/12/29 12:43:52;;;;;;;27.33;13.40;;;;;;;;;;5158932;27;21307;-66
2021/12/29 12:46:32;;;;;;;25.92;13.80;;;;;;;;;;5146294;27;20085;-66
2021/12/29 12:48:59;;;;;;;28.67;14.25;;;;;;;;;;5134282;27;20058;-63
2021/12/29 12:51:26;;;;;;;28.05;15.02;;;;;;;;;;5125419;27;20050;-63
2021/12/29 12:53:52;;;;;;;29.35;13.85;;;;;;;;;;5125242;27;20052;-63
2021/12/29 12:56:22;;;;;;;21.83;13.32;;;;;;;;;;5125270;27;20054;-64
2021/12/29 12:58:50;;;;;;;27.35;12.93;;;;;;;;;;5125527;27;20050;-63
2021/12/29 13:01:23;;;;;;;35.60;14.95;;;;;;;;;;5125524;27;20506;-63
2021/12/29 13:03:59;;;;;;;26.58;13.65;;;;;;;;;;5131690;27;20047;-63
2021/12/29 13:06:31;;;;;;;21.23;12.48;;;;;;;;;;5144082;27;20060;-63
2021/12/29 13:08:59;;;;;;;22.80;12.10;;;;;;;;;;5126210;27;20051;-63
2021/12/29 13:11:32;;;;;;;23.00;12.35;;;;;;;;;;5124906;27;20589;-65
2021/12/29 13:14:00;;;;;;;23.53;10.93;;;;;;;;;;5125775;27;20062;-64
2021/12/29 13:16:27;;;;;;;22.35;12.13;;;;;;;;;;5125676;27;20502;-64
2021/12/29 13:18:55;;;;;;;20.25;10.35;;;;;;;;;;5134150;27;20058;-64
2021/12/29 13:21:37;;;;;;;24.38;11.32;;;;;;;;;;5137138;27;20421;-64
2021/12/29 13:24:05;;;;;;;23.33;10.40;;;;;;;;;;5128822;27;20135;-64
2021/12/29 13:26:34;;;;;;;24.33;9.70;;;;;;;;;;5109114;27;20055;-64
2021/12/29 13:29:00;;;;;;;23.02;8.93;;;;;;;;;;5109335;27;20053;-64
2021/12/29 13:31:26;;;;;;;22.35;9.48;;;;;;;;;;5121032;27;20062;-64
2021/12/29 13:33:54;;;;;;;19.98;9.55;;;;;;;;;;5122400;27;20055;-64
2021/12/29 13:36:22;;;;;;;15.60;9.00;;;;;;;;;;5115321;27;20088;-64
2021/12/29 13:38:51;;;;;;;22.63;9.65;;;;;;;;;;5109020;27;20056;-64
2021/12/29 13:41:19;;;;;;;20.27;9.60;;;;;;;;;;5108133;27;20581;-64
2021/12/29 13:43:47;;;;;;;24.73;10.45;;;;;;;;;;5106027;27;20057;-64
2021/12/29 13:46:18;;;;;;;19.77;8.88;;;;;;;;;;5116773;27;20058;-64
2021/12/29 13:48:47;;;;;;;19.58;9.32;;;;;;;;;;5109455;27;20973;-64
2021/12/29 13:51:16;;;;;;;23.45;9.43;;;;;;;;;;5109718;27;20155;-65
2021/12/29 13:54:02;;;;;;;18.33;8.48;;;;;;;;;;5105584;27;20052;-65
2021/12/29 13:56:30;;;;;;;18.45;9.07;;;;;;;;;;5090580;28;20058;-65
2021/12/29 13:59:01;;;;;;;20.92;10.23;;;;;;;;;;5091555;28;21251;-67
2021/12/29 14:01:29;;;;;;;25.27;9.45;;;;;;;;;;5096001;28;20087;-66
2021/12/29 14:03:55;;;;;;;24.13;9.27;;;;;;;;;;5110097;27;20059;-66
2021/12/29 14:06:23;;;;;;;24.00;10.38;;;;;;;;;;5108961;27;20066;-66
2021/12/29 14:08:49;;;;;;;28.30;10.23;;;;;;;;;;5109489;27;20055;-65
2021/12/29 14:11:16;;;;;;;23.30;10.55;;;;;;;;;;5097569;27;20094;-65
2021/12/29 14:13:45;;;;;;;20.80;10.10;;;;;;;;;;5099326;28;20920;-65
2021/12/29 14:16:15;;;;;;;23.95;10.85;;;;;;;;;;5110784;28;20056;-66
2021/12/29 14:18:56;;;;;;;19.65;9.88;;;;;;;;;;5106601;28;20053;-65
2021/12/29 14:21:36;;;;;;;26.08;11.18;;;;;;;;;;5101781;27;20056;-66
2021/12/29 14:24:07;;;;;;;20.52;9.68;;;;;;;;;;5104839;27;20162;-66
2021/12/29 14:26:35;;;;;;;21.85;9.65;;;;;;;;;;5109250;27;20058;-66
2021/12/29 14:29:03;;;;;;;18.00;9.43;;;;;;;;;;5110382;27;20151;-66
2021/12/29 14:31:40;;;;;;;21.30;10.05;;;;;;;;;;5106923;27;20048;-67
2021/12/29 14:34:08;;;;;;;20.17;8.82;;;;;;;;;;5110064;27;20090;-66
2021/12/29 14:36:44;;;;;;;19.55;9.32;;;;;;;;;;5110795;27;20052;-66
2021/12/29 14:39:12;;;;;;;17.63;9.07;;;;;;;;;;5110195;27;20519;-65
2021/12/29 14:41:40;;;;;;;16.77;8.45;;;;;;;;;;5111639;27;20056;-65
2021/12/29 14:44:10;;;;;;;23.07;8.67;;;;;;;;;;5128281;27;20865;-66
2021/12/29 14:46:47;;;;;;;19.77;9.48;;;;;;;;;;5130502;27;20284;-65
2021/12/29 14:49:14;;;;;;;18.02;8.63;;;;;;;;;;5113371;27;20054;-66
2021/12/29 14:51:50;;;;;;;16.52;8.50;;;;;;;;;;5131390;27;20047;-66
2021/12/29 14:54:16;;;;;;;17.15;8.02;;;;;;;;;;5129772;27;20055;-66
2021/12/29 14:56:53;;;;;;;19.75;8.73;;;;;;;;;;5130085;27;20517;-66
2021/12/29 14:59:19;;;;;;;20.67;9.48;;;;;;;;;;5129888;27;20109;-67
2021/12/29 15:02:11;;;;;;;19.48;9.93;;;;;;;;;;5130174;27;20055;-66
2021/12/29 15:04:39;;;;;;;19.40;9.20;;;;;;;;;;5125524;27;20044;-66
2021/12/29 15:07:31;;;;;;;20.65;10.23;;;;;;;;;;5109212;28;20054;-66
2021/12/29 15:09:59;;;;;;;17.80;10.00;;;;;;;;;;5105949;28;20063;-66
2021/12/29 15:12:27;;;;;;;21.00;10.52;;;;;;;;;;5110165;28;20052;-66
2021/12/29 15:14:54;;;;;;;24.35;11.10;;;;;;;;;;5126707;27;20052;-66
2021/12/29 15:17:20;;;;;;;19.30;11.25;;;;;;;;;;5117916;27;20044;-66
2021/12/29 15:19:47;;;;;;;17.40;9.82;;;;;;;;;;5109581;28;20075;-66
2021/12/29 15:22:13;;;;;;;18.73;10.07;;;;;;;;;;5122982;27;20058;-67
2021/12/29 15:24:39;;;;;;;18.95;9.85;;;;;;;;;;5120471;27;20051;-66
2021/12/29 15:27:06;;;;;;;19.27;9.43;;;;;;;;;;5130261;27;20087;-67
2021/12/29 15:29:32;;;;;;;18.10;9.88;;;;;;;;;;5125614;27;20063;-66
2021/12/29 15:32:00;;;;;;;17.95;9.05;;;;;;;;;;5124364;27;20051;-66
2021/12/29 15:34:26;;;;;;;16.75;9.13;;;;;;;;;;5129362;27;20157;-66
2021/12/29 15:36:53;;;;;;;17.83;8.88;;;;;;;;;;5127465;27;20110;-66
2021/12/29 15:39:23;;;;;;;16.33;8.98;;;;;;;;;;5101139;27;20525;-67
2021/12/29 15:41:50;;;;;;;15.10;8.82;;;;;;;;;;5128055;27;20060;-66
2021/12/29 15:44:17;;;;;;;17.42;10.00;;;;;;;;;;5113365;27;20056;-66
2021/12/29 15:46:45;;;;;;;17.05;9.27;;;;;;;;;;5128023;27;20478;-66
2021/12/29 15:49:11;;;;;;;17.25;9.77;;;;;;;;;;5129679;27;20592;-67
2021/12/29 15:51:38;;;;;;;18.40;10.05;;;;;;;;;;5129121;27;20055;-66
2021/12/29 15:54:04;;;;;;;20.35;10.85;;;;;;;;;;5125101;27;20130;-66
2021/12/29 15:56:31;;;;;;;19.70;11.43;;;;;;;;;;5115827;27;20893;-66
2021/12/29 15:58:57;;;;;;;19.73;11.38;;;;;;;;;;5117500;27;20498;-66
2021/12/29 16:01:25;;;;;;;21.27;11.73;;;;;;;;;;5122840;27;20440;-64
2021/12/29 16:03:53;;;;;;;23.77;11.32;;;;;;;;;;5112529;27;20048;-64
2021/12/29 16:06:21;;;;;;;23.10;11.85;;;;;;;;;;5110287;27;20048;-65
2021/12/29 16:08:47;;;;;;;19.95;11.38;;;;;;;;;;5121537;27;20048;-64
2021/12/29 16:11:14;;;;;;;19.50;11.13;;;;;;;;;;5109116;28;20494;-65
2021/12/29 16:13:41;;;;;;;19.20;10.43;;;;;;;;;;5120446;27;20048;-64
2021/12/29 16:16:07;;;;;;;18.10;10.88;;;;;;;;;;5112533;27;20066;-64
2021/12/29 16:18:34;;;;;;;20.77;11.63;;;;;;;;;;5115506;27;22081;-64
2021/12/29 16:21:01;;;;;;;19.13;10.75;;;;;;;;;;5127849;27;20056;-65
2021/12/29 16:23:27;;;;;;;21.20;11.20;;;;;;;;;;5110183;27;20055;-65
2021/12/29 16:25:53;;;;;;;20.83;11.40;;;;;;;;;;5115411;27;20040;-65
2021/12/29 16:28:30;;;;;;;22.17;11.82;;;;;;;;;;5128439;27;20323;-66
2021/12/29 16:30:56;;;;;;;22.30;12.60;;;;;;;;;;5127059;27;20513;-66
2021/12/29 16:33:22;;;;;;;23.35;12.32;;;;;;;;;;5109806;27;20138;-65
2021/12/29 16:35:49;;;;;;;22.17;12.63;;;;;;;;;;5124817;27;20581;-65
2021/12/29 16:38:16;;;;;;;19.95;12.05;;;;;;;;;;5128365;27;20048;-66
2021/12/29 16:40:42;;;;;;;24.38;12.57;;;;;;;;;;5123475;27;20060;-66
2021/12/29 16:43:08;;;;;;;22.20;12.45;;;;;;;;;;5126294;27;20059;-67
2021/12/29 16:45:35;;;;;;;21.63;11.77;;;;;;;;;;5117335;27;20895;-69
2021/12/29 16:48:01;;;;;;;24.40;12.57;;;;;;;;;;5127304;27;20554;-65
2021/12/29 16:50:29;;;;;;;25.25;13.07;;;;;;;;;;5124905;27;20048;-65
2021/12/29 16:52:55;;;;;;;26.70;13.48;;;;;;;;;;5121006;27;20102;-65
2021/12/29 16:55:27;;;;;;;25.77;14.60;;;;;;;;;;5128682;27;20066;-66
2021/12/29 16:57:53;;;;;;;26.52;14.50;;;;;;;;;;5128321;27;20086;-65
2021/12/29 17:00:21;;;;;;;26.50;13.95;;;;;;;;;;5128474;27;20071;-65
2021/12/29 17:02:48;;;;;;;28.25;13.85;;;;;;;;;;5128064;27;20122;-65
2021/12/29 17:05:15;;;;;;;26.70;14.05;;;;;;;;;;5128812;27;20055;-65
2021/12/29 17:07:41;;;;;;;30.85;15.15;;;;;;;;;;5129310;27;20509;-65
2021/12/29 17:10:18;;;;;;;34.13;16.85;;;;;;;;;;5128470;27;20048;-65
2021/12/29 17:12:45;;;;;;;32.47;16.80;;;;;;;;;;5128806;27;20509;-64
2021/12/29 17:15:12;;;;;;;31.52;15.43;;;;;;;;;;5128298;27;20087;-65
2021/12/29 17:17:39;;;;;;;30.63;14.45;;;;;;;;;;5127787;27;21294;-64
2021/12/29 17:20:06;;;;;;;33.95;15.63;;;;;;;;;;5127960;27;20664;-65
2021/12/29 17:22:33;;;;;;;34.63;15.27;;;;;;;;;;5127576;27;20059;-65
2021/12/29 17:25:00;;;;;;;30.40;14.82;;;;;;;;;;5127627;27;20095;-64
2021/12/29 17:27:26;;;;;;;34.58;15.25;;;;;;;;;;5128708;27;20583;-64
2021/12/29 17:29:53;;;;;;;41.33;15.52;;;;;;;;;;5130428;27;20074;-65
2021/12/29 17:32:19;;;;;;;33.15;14.90;;;;;;;;;;5132643;27;20428;-64
2021/12/29 17:34:45;;;;;;;37.63;15.35;;;;;;;;;;5132101;27;20062;-65
2021/12/29 17:37:12;;;;;;;40.33;16.10;;;;;;;;;;5131692;27;20044;-64
2021/12/29 17:39:38;;;;;;;44.80;17.40;;;;;;;;;;5131472;27;20084;-65
2021/12/29 17:42:05;;;;;;;48.28;18.65;;;;;;;;;;5131018;27;20155;-65
2021/12/29 17:44:31;;;;;;;44.30;18.25;;;;;;;;;;5132004;27;20050;-65
2021/12/29 17:46:57;;;;;;;55.67;19.63;;;;;;;;;;5130933;27;20073;-64
2021/12/29 17:49:27;;;;;;;53.83;19.40;;;;;;;;;;5132109;27;20051;-65
2021/12/29 17:51:56;;;;;;;58.38;20.63;;;;;;;;;;5131241;27;20051;-64
2021/12/29 17:54:22;;;;;;;61.22;21.08;;;;;;;;;;5131013;27;20059;-65
2021/12/29 17:56:50;;;;;;;80.47;23.38;;;;;;;;;;5131492;27;20120;-64
2021/12/29 17:59:16;;;;;;;60.55;21.70;;;;;;;;;;5130918;27;20125;-65
2021/12/29 18:01:42;;;;;;;67.90;22.25;;;;;;;;;;5131820;27;20052;-64
2021/12/29 18:04:09;;;;;;;67.93;23.30;;;;;;;;;;5131518;27;20087;-65
2021/12/29 18:06:36;;;;;;;71.65;24.20;;;;;;;;;;5131273;27;20051;-65
2021/12/29 18:09:03;;;;;;;64.20;23.85;;;;;;;;;;5130935;27;20059;-65
2021/12/29 18:11:30;;;;;;;72.85;24.63;;;;;;;;;;5131285;27;20047;-64
2021/12/29 18:13:57;;;;;;;69.55;25.77;;;;;;;;;;5130674;27;20150;-65
2021/12/29 18:16:23;;;;;;;82.32;26.67;;;;;;;;;;5130681;27;20039;-65
2021/12/29 18:18:49;;;;;;;59.25;23.77;;;;;;;;;;5130876;27;20048;-64
2021/12/29 18:21:16;;;;;;;69.57;27.33;;;;;;;;;;5130887;27;20075;-64
2021/12/29 18:23:43;;;;;;;60.05;24.38;;;;;;;;;;5130808;27;20134;-64
2021/12/29 18:26:09;;;;;;;63.22;25.50;;;;;;;;;;5131229;27;20058;-64
2021/12/29 18:28:39;;;;;;;65.70;24.75;;;;;;;;;;5130810;27;20506;-64
2021/12/29 18:31:06;;;;;;;62.60;24.75;;;;;;;;;;5131019;27;20050;-64
2021/12/29 18:33:33;;;;;;;61.20;23.05;;;;;;;;;;5131033;27;20055;-64
2021/12/29 18:36:00;;;;;;;52.72;21.00;;;;;;;;;;5130670;27;20043;-64
2021/12/29 18:38:26;;;;;;;53.08;19.02;;;;;;;;;;5130330;27;20095;-66
2021/12/29 18:40:54;;;;;;;49.17;18.05;;;;;;;;;;5130443;27;20060;-64
2021/12/29 18:43:20;;;;;;;43.22;15.05;;;;;;;;;;5130517;27;20052;-65
2021/12/29 18:45:46;;;;;;;39.25;12.93;;;;;;;;;;5130216;27;20188;-65
2021/12/29 18:48:13;;;;;;;39.58;12.38;;;;;;;;;;5130397;27;20117;-65
2021/12/29 18:50:40;;;;;;;38.05;11.77;;;;;;;;;;5130648;27;20051;-65
2021/12/29 18:53:06;;;;;;;37.88;10.65;;;;;;;;;;5130326;27;20532;-65
2021/12/29 18:55:36;;;;;;;40.13;9.73;;;;;;;;;;5131174;27;20058;-64
2021/12/29 18:58:03;;;;;;;33.08;8.13;;;;;;;;;;5130256;27;20056;-64
2021/12/29 19:00:29;;;;;;;32.03;7.40;;;;;;;;;;5130206;27;20058;-65
2021/12/29 19:02:56;;;;;;;26.63;7.00;;;;;;;;;;5129828;27;20519;-64
2021/12/29 19:05:23;;;;;;;41.00;7.70;;;;;;;;;;5130550;27;20048;-64
2021/12/29 19:07:51;;;;;;;26.25;6.82;;;;;;;;;;5130109;27;20059;-65
2021/12/29 19:10:19;;;;;;;37.58;7.43;;;;;;;;;;5130160;27;20079;-64
2021/12/29 19:12:49;;;;;;;26.20;6.28;;;;;;;;;;5130270;27;20047;-65
2021/12/29 19:15:17;;;;;;;30.27;6.40;;;;;;;;;;5130179;27;20052;-64
2021/12/29 19:17:43;;;;;;;34.60;6.07;;;;;;;;;;5129744;27;20575;-64
2021/12/29 19:20:11;;;;;;;34.67;5.88;;;;;;;;;;5130149;27;20056;-64
2021/12/29 19:22:38;;;;;;;28.50;5.13;;;;;;;;;;5129234;27;20051;-71
2021/12/29 19:25:04;;;;;;;27.73;5.25;;;;;;;;;;5130283;27;20055;-64
2021/12/29 19:27:31;;;;;;;33.05;5.50;;;;;;;;;;5130017;27;20082;-64
2021/12/29 19:29:58;;;;;;;27.58;5.60;;;;;;;;;;5129836;27;20146;-66
2021/12/29 19:32:24;;;;;;;29.08;5.65;;;;;;;;;;5129634;27;20055;-66
2021/12/29 19:34:51;;;;;;;32.88;5.57;;;;;;;;;;5129801;27;20174;-64
2021/12/29 19:37:17;;;;;;;24.50;5.72;;;;;;;;;;5129838;27;20058;-65
2021/12/29 19:39:44;;;;;;;28.73;5.05;;;;;;;;;;5130081;27;20140;-65
2021/12/29 19:42:15;;;;;;;27.15;5.63;;;;;;;;;;5130044;27;20055;-64
2021/12/29 19:44:46;;;;;;;31.92;6.05;;;;;;;;;;5129510;27;20052;-65
2021/12/29 19:47:15;;;;;;;31.23;5.15;;;;;;;;;;5129375;27;20165;-64
2021/12/29 19:49:41;;;;;;;30.35;5.60;;;;;;;;;;5129679;27;20051;-64
2021/12/29 19:52:11;;;;;;;28.45;4.90;;;;;;;;;;5128725;27;20052;-65
2021/12/29 19:54:39;;;;;;;32.47;5.45;;;;;;;;;;5129337;27;20056;-64
2021/12/29 19:57:06;;;;;;;28.80;6.03;;;;;;;;;;5129043;27;20062;-65
2021/12/29 19:59:32;;;;;;;36.67;4.68;;;;;;;;;;5129817;27;20543;-64
2021/12/29 20:01:58;;;;;;;34.65;5.13;;;;;;;;;;5129177;27;20047;-65
2021/12/29 20:04:24;;;;;;;36.13;4.80;;;;;;;;;;5129600;27;20058;-64
2021/12/29 20:06:52;;;;;;;42.30;5.55;;;;;;;;;;5129032;27;20055;-64
2021/12/29 20:09:18;;;;;;;41.08;6.03;;;;;;;;;;5129202;27;20142;-65
2021/12/29 20:11:45;;;;;;;34.83;6.35;;;;;;;;;;5128899;27;20520;-64
2021/12/29 20:14:14;;;;;;;37.63;6.00;;;;;;;;;;5129356;27;20048;-64
2021/12/29 20:16:42;;;;;;;30.98;5.82;;;;;;;;;;5129052;27;20511;-65
2021/12/29 20:19:09;;;;;;;30.70;5.78;;;;;;;;;;5129744;27;20056;-64
2021/12/29 20:21:35;;;;;;;32.00;4.95;;;;;;;;;;5129385;27;20138;-64
2021/12/29 20:24:01;;;;;;;27.67;4.80;;;;;;;;;;5128419;27;20086;-65
2021/12/29 20:26:28;;;;;;;29.13;5.35;;;;;;;;;;5128936;27;20055;-65
2021/12/29 20:28:56;;;;;;;30.33;5.10;;;;;;;;;;5129495;27;20114;-64
2021/12/29 20:31:22;;;;;;;32.78;6.60;;;;;;;;;;5128483;27;20575;-64
2021/12/29 20:33:50;;;;;;;29.27;4.90;;;;;;;;;;5129195;27;20105;-64
2021/12/29 20:36:17;;;;;;;29.42;5.15;;;;;;;;;;5128767;27;20058;-64
2021/12/29 20:38:43;;;;;;;39.78;5.85;;;;;;;;;;5128734;27;20051;-64
2021/12/29 20:41:11;;;;;;;39.60;5.00;;;;;;;;;;5128571;27;20055;-64
2021/12/29 20:43:37;;;;;;;33.72;5.53;;;;;;;;;;5128933;27;20509;-64
2021/12/29 20:46:04;;;;;;;36.28;5.57;;;;;;;;;;5128332;27;20062;-64
2021/12/29 20:48:35;;;;;;;45.45;6.45;;;;;;;;;;5128641;27;20543;-64
2021/12/29 20:51:01;;;;;;;36.03;5.05;;;;;;;;;;5128931;27;20155;-63
2021/12/29 20:53:27;;;;;;;38.90;4.88;;;;;;;;;;5129132;27;20062;-64
2021/12/29 20:55:54;;;;;;;36.75;6.05;;;;;;;;;;5127910;27;20540;-64
2021/12/29 20:58:20;;;;;;;30.98;5.47;;;;;;;;;;5128207;27;20139;-64
2021/12/29 21:00:46;;;;;;;36.03;5.28;;;;;;;;;;5128470;27;20081;-64
2021/12/29 21:03:13;;;;;;;42.38;6.75;;;;;;;;;;5128536;27;20056;-63
2021/12/29 21:05:39;;;;;;;33.75;6.03;;;;;;;;;;5132807;27;20056;-64
2021/12/29 21:08:05;;;;;;;32.90;5.22;;;;;;;;;;5132306;27;20134;-64
2021/12/29 21:10:32;;;;;;;43.78;5.78;;;;;;;;;;5131858;27;20047;-64
2021/12/29 21:12:58;;;;;;;43.85;6.50;;;;;;;;;;5131628;27;20056;-64
2021/12/29 21:15:27;;;;;;;42.70;5.95;;;;;;;;;;5132106;27;20055;-64
2021/12/29 21:17:54;;;;;;;46.25;6.32;;;;;;;;;;5131867;27;20452;-64
2021/12/29 21:20:22;;;;;;;37.40;5.00;;;;;;;;;;5131956;27;20066;-64
2021/12/29 21:22:50;;;;;;;39.72;6.00;;;;;;;;;;5131547;27;20071;-64
2021/12/29 21:25:17;;;;;;;34.72;5.53;;;;;;;;;;5132229;27;20617;-64
2021/12/29 21:27:45;;;;;;;41.42;5.97;;;;;;;;;;5131593;27;20101;-64
2021/12/29 21:30:12;;;;;;;51.25;7.45;;;;;;;;;;5131555;27;20051;-64
2021/12/29 21:32:38;;;;;;;62.33;9.97;;;;;;;;;;5130888;27;20110;-64
2021/12/29 21:35:05;;;;;;;42.97;5.78;;;;;;;;;;5131848;27;20044;-64
2021/12/29 21:37:31;;;;;;;43.28;5.97;;;;;;;;;;5131587;27;20051;-64
2021/12/29 21:39:58;;;;;;;36.60;6.05;;;;;;;;;;5131698;27;20060;-64
2021/12/29 21:42:24;;;;;;;39.25;8.57;;;;;;;;;;5131775;27;20059;-64
2021/12/29 21:44:50;;;;;;;39.58;5.60;;;;;;;;;;5131757;27;20613;-64
2021/12/29 21:47:17;;;;;;;39.80;6.40;;;;;;;;;;5132192;27;20562;-64
2021/12/29 21:49:44;;;;;;;50.35;6.97;;;;;;;;;;5131411;27;20138;-64
2021/12/29 21:52:10;;;;;;;50.75;5.78;;;;;;;;;;5131089;27;20142;-64
2021/12/29 21:54:52;;;;;;;48.72;6.80;;;;;;;;;;5130941;27;20055;-64
2021/12/29 21:57:19;;;;;;;39.35;6.43;;;;;;;;;;5131111;27;20052;-64
2021/12/29 21:59:45;;;;;;;45.15;6.10;;;;;;;;;;5131917;27;20051;-64
2021/12/29 22:02:11;;;;;;;47.05;6.15;;;;;;;;;;5131282;27;20497;-64
2021/12/29 22:04:38;;;;;;;56.65;7.88;;;;;;;;;;5131836;27;20046;-64
2021/12/29 22:07:04;;;;;;;51.33;6.68;;;;;;;;;;5130314;27;20066;-64
2021/12/29 22:09:30;;;;;;;46.85;5.43;;;;;;;;;;5131997;27;20142;-64
2021/12/29 22:11:57;;;;;;;50.25;5.97;;;;;;;;;;5131218;27;20052;-64
2021/12/29 22:14:23;;;;;;;50.50;7.00;;;;;;;;;;5130668;27;20043;-64
2021/12/29 22:16:49;;;;;;;41.22;5.97;;;;;;;;;;5131242;27;20510;-64
2021/12/29 22:19:16;;;;;;;49.97;6.30;;;;;;;;;;5130761;27;20142;-64
2021/12/29 22:21:43;;;;;;;52.45;7.38;;;;;;;;;;5131097;27;20059;-64
2021/12/29 22:24:09;;;;;;;50.13;7.47;;;;;;;;;;5130651;27;20079;-64
2021/12/29 22:26:35;;;;;;;55.63;7.43;;;;;;;;;;5131109;27;20532;-64
2021/12/29 22:29:02;;;;;;;62.40;8.02;;;;;;;;;;5130893;27;20052;-64
2021/12/29 22:31:28;;;;;;;53.42;7.65;;;;;;;;;;5130739;27;20055;-64
2021/12/29 22:33:55;;;;;;;50.92;7.47;;;;;;;;;;5131229;27;20523;-64
2021/12/29 22:36:23;;;;;;;49.92;8.13;;;;;;;;;;5130823;27;20522;-64
2021/12/29 22:38:49;;;;;;;49.15;7.50;;;;;;;;;;5130273;27;20062;-64
2021/12/29 22:41:17;;;;;;;48.55;7.18;;;;;;;;;;5130702;27;20059;-64
2021/12/29 22:43:46;;;;;;;45.67;6.90;;;;;;;;;;5130442;27;20098;-64
2021/12/29 22:46:13;;;;;;;50.28;7.53;;;;;;;;;;5130496;27;20520;-64
2021/12/29 22:48:40;;;;;;;48.55;7.03;;;;;;;;;;5130370;27;20139;-64
2021/12/29 22:51:07;;;;;;;44.67;8.02;;;;;;;;;;5111899;27;20054;-64
2021/12/29 22:53:33;;;;;;;47.67;7.63;;;;;;;;;;5130619;27;20096;-64
2021/12/29 22:56:01;;;;;;;52.83;7.65;;;;;;;;;;5130425;27;20052;-64
2021/12/29 22:58:28;;;;;;;49.47;7.50;;;;;;;;;;5130160;27;20056;-64
2021/12/29 23:01:00;;;;;;;44.95;6.97;;;;;;;;;;5130091;27;20558;-64
2021/12/29 23:03:27;;;;;;;43.30;7.20;;;;;;;;;;5130373;27;20109;-64
2021/12/29 23:05:54;;;;;;;47.78;8.27;;;;;;;;;;5130012;27;20056;-64
2021/12/29 23:08:22;;;;;;;43.58;7.85;;;;;;;;;;5130201;27;20490;-64
2021/12/29 23:10:50;;;;;;;42.08;7.00;;;;;;;;;;5130291;27;20508;-64
2021/12/29 23:13:17;;;;;;;47.37;7.37;;;;;;;;;;5130634;27;20056;-64
2021/12/29 23:15:43;;;;;;;42.10;7.20;;;;;;;;;;5130112;27;20052;-64
2021/12/29 23:18:09;;;;;;;43.92;7.32;;;;;;;;;;5130516;27;20059;-64
2021/12/29 23:20:36;;;;;;;43.63;7.88;;;;;;;;;;5130378;27;20046;-64
2021/12/29 23:23:06;;;;;;;40.42;8.25;;;;;;;;;;5129272;27;20139;-64
2021/12/29 23:25:34;;;;;;;47.80;7.47;;;;;;;;;;5129971;27;20474;-64
2021/12/29 23:28:12;;;;;;;42.97;7.78;;;;;;;;;;5129021;27;20998;-64
2021/12/29 23:30:49;;;;;;;47.50;7.93;;;;;;;;;;5130082;27;20051;-64
2021/12/29 23:33:21;;;;;;;52.40;8.43;;;;;;;;;;5129800;27;20480;-64
2021/12/29 23:35:47;;;;;;;43.20;9.90;;;;;;;;;;5129695;27;20048;-64
2021/12/29 23:38:14;;;;;;;43.97;9.40;;;;;;;;;;5130311;27;20191;-64
2021/12/29 23:40:42;;;;;;;43.03;9.45;;;;;;;;;;5130342;27;20196;-64
2021/12/29 23:43:09;;;;;;;46.92;9.57;;;;;;;;;;5129125;27;20079;-64
2021/12/29 23:45:35;;;;;;;42.78;9.50;;;;;;;;;;5129684;27;20058;-64
2021/12/29 23:48:02;;;;;;;46.42;10.75;;;;;;;;;;5129128;27;20567;-64
2021/12/29 23:50:28;;;;;;;44.92;10.68;;;;;;;;;;5129092;27;20043;-64
2021/12/29 23:52:54;;;;;;;54.20;11.38;;;;;;;;;;5128715;27;20176;-64
2021/12/29 23:55:21;;;;;;;50.47;11.65;;;;;;;;;;5129487;27;20531;-64
2021/12/29 23:57:47;;;;;;;47.00;9.85;;;;;;;;;;5130238;27;20060;-64
